• Join FlightAware (Why Join?)
  • Login
  • US Flag 
07:00AM EDT


 

Airport Tracker/Info


-or-


 

Live Flight TrackerFlight Track Log ✈ ASQ5750 ✈ 04-May-2013 ✈ KORD - KALB

Flight Track Log - Related Links

Times and Time Zones

All times are in EDT time to prevent confusion due to time zone crossing. See the ASQ5750 flight status page for this flight to view local times or setup timezone preferences in your user account.

Time Position Orientation Groundspeed Altitude Reporting Facility
EDT Latitude Longitude Course Direction KTS MPH feet Rate Location/Type
09:07AM 42.0311 -87.8344 66° East 218 251 4,800  Level Chicago Center
09:07AM 42.0500 -87.7500 73° East 263 303 7,200 2,760 Climbing Chicago TRACON
09:10AM 42.1203 -87.5364 66° East 278 320 13,300 2,040 Climbing Chicago Center
09:11AM 42.2198 -87.1907 66° East  Level FlightAware Approximate
09:11AM 42.1422 -87.4294 74° East 307 353 14,400  Level Chicago Center
09:12AM 42.2605 -87.0686 66° East  Level FlightAware Approximate
09:12AM 42.1514 -87.3086 84° East 322 371 15,700  Level Chicago Center
09:13AM 42.1594 -87.1819 85° East 336 387 17,200 1,380 Climbing Chicago Center
09:14AM 42.1667 -87.0497 86° East 352 405 18,600 1,320 Climbing Chicago Center
09:15AM 42.1742 -86.9186 86° East 352 405 19,900 1,200 Climbing Chicago Center
09:16AM 42.1819 -86.7828 86° East 362 417 21,100 1,080 Climbing Chicago Center
09:17AM 42.1892 -86.6331 86° East 368 423 22,200 900 Climbing Chicago Center
09:18AM 42.1978 -86.4908 85° East 379 436 23,000 660 Climbing Chicago Center
09:19AM 42.2047 -86.3458 86° East 386 444 23,600 540 Climbing Chicago Center
09:20AM 42.2119 -86.1975 86° East 394 453 24,200 600 Climbing Chicago Center
09:21AM 42.2197 -86.0444 86° East 405 466 24,900 600 Climbing Chicago Center
09:22AM 42.2281 -85.8747 86° East 406 467 25,500 540 Climbing Chicago Center
09:23AM 42.2353 -85.7219 86° East 410 472 26,100 540 Climbing Chicago Center
09:24AM 42.2417 -85.5686 87° East 412 474 26,700 540 Climbing Chicago Center
09:25AM 42.2492 -85.4158 86° East 411 473 27,300 660 Climbing Chicago Center
09:26AM 42.2583 -85.2717 85° East 414 476 27,900 840 Climbing Cleveland Center
09:27AM 42.2622 -85.1206 88° East 409 471 28,800 840 Climbing Cleveland Center
09:28AM 42.2703 -84.9667 86° East 404 465 29,600 660 Climbing Cleveland Center
09:29AM 42.2758 -84.8211 87° East 398 458 30,200 540 Climbing Cleveland Center
09:30AM 42.2831 -84.6783 86° East 393 452 30,700 360 Climbing Cleveland Center
09:31AM 42.2819 -84.5322 91° East 388 447 31,000 120 Climbing Cleveland Center
09:32AM 42.2953 -84.3814 83° East 388 447 31,000  Level Cleveland Center
09:33AM 42.3189 -84.2314 78° East 394 453 31,000  Level Cleveland Center
09:34AM 42.3403 -84.0781 79° East 407 468 31,000  Level Cleveland Center
09:35AM 42.3617 -83.9244 79° East 407 468 31,000  Level Cleveland Center
09:36AM 42.3828 -83.7681 80° East 412 474 31,000  Level Cleveland Center
09:37AM 42.4056 -83.6147 79° East 412 474 31,000  Level Cleveland Center
09:38AM 42.4092 -83.4742 88° East 412 474 31,000  Level Cleveland Center
09:39AM 42.4175 -83.3114 86° East 418 481 31,000  Level Cleveland Center
09:40AM 42.4233 -83.1400 87° East 423 487 31,000  Level Cleveland Center
09:41AM 42.4289 -82.9828 87° East 423 487 31,000  Level Cleveland Center
09:42AM 42.4342 -82.8225 87° East 423 487 31,000  Level Cleveland Center
09:43AM 42.4392 -82.6622 88° East 423 487 31,000  Level Cleveland Center
09:44AM 42.4419 -82.5050 89° East 423 487 31,000  Level Cleveland Center
09:45AM 42.4467 -82.3419 88° East 423 487 31,000  Level Cleveland Center
09:46AM 42.4511 -82.1844 88° East 423 487 31,000  Level Cleveland Center
09:47AM 42.4550 -82.0408 88° East 423 487 31,000  Level Cleveland Center
09:48AM 42.4594 -81.8581 88° East 423 487 31,000  Level Cleveland Center
09:49AM 42.4631 -81.7117 88° East 423 487 31,000  Level Cleveland Center
09:50AM 42.4686 -81.5486 87° East 423 487 31,000  Level Cleveland Center
09:51AM 42.4700 -81.3883 89° East 422 486 31,000  Level Cleveland Center
09:52AM 42.4731 -81.2222 89° East 429 494 31,000  Level Cleveland Center
09:53AM 42.4781 -81.0447 88° East 429 494 31,000  Level Cleveland Center
09:54AM 42.4786 -80.8817 90° East 429 494 31,000  Level Cleveland Center
09:55AM 42.4831 -80.7183 88° East 429 494 31,000  Level Cleveland Center
09:56AM 42.4831 -80.5578 90° East 435 501 31,000  Level Cleveland Center
09:57AM 42.4850 -80.3889 89° East 435 501 31,000  Level Cleveland Center
09:58AM 42.4867 -80.2283 89° East 435 501 31,000  Level Cleveland Center
09:59AM 42.4861 -80.0681 90° East 435 501 31,000  Level Cleveland Center
10:00AM 42.4917 -79.9214 87° East 430 495 31,000  Level Cleveland Center
10:01AM 42.4886 -79.7583 91° East 430 495 31,000  Level Cleveland Center
10:02AM 42.4914 -79.5978 89° East 425 489 31,000  Level Cleveland Center
10:03AM 42.4900 -79.4372 91° East 425 489 31,000  Level Cleveland Center
10:04AM 42.4925 -79.2739 89° East 420 483 31,000  Level Cleveland Center
10:05AM 42.5031 -79.1103 85° East 420 483 31,000  Level Cleveland Center
10:06AM 42.5153 -78.9522 84° East 426 490 31,000  Level Cleveland Center
10:07AM 42.5256 -78.7914 85° East 426 490 31,000  Level Cleveland Center
10:08AM 42.5356 -78.6306 85° East 426 490 31,000  Level Cleveland Center
10:09AM 42.5472 -78.4667 84° East 426 490 31,000  Level Cleveland Center
10:10AM 42.5567 -78.3083 85° East 426 490 31,000  Level Cleveland Center
10:11AM 42.5658 -78.1475 86° East 426 490 31,000  Level Cleveland Center
10:12AM 42.5747 -77.9864 86° East 426 490 31,000  Level Cleveland Center
10:13AM 42.5858 -77.8281 85° East 426 490 31,000  Level Cleveland Center
10:14AM 42.5942 -77.6667 86° East 426 490 31,000 -300 Level Cleveland Center
10:15AM 42.6100 -77.3781 86° East 444 511 30,200 -660 Descending Boston Center
10:16AM 42.6192 -77.2094 86° East 444 511 29,300 -600 Descending Boston Center
10:17AM 42.6283 -77.0350 86° East 454 522 29,000 -180 Descending Boston Center
10:19AM 42.6372 -76.8661 86° East 454 522 29,000  Level Boston Center
10:20AM 42.6492 -76.6664 85° East 448 516 29,000  Level Boston Center
10:21AM 42.6550 -76.5031 87° East 438 504 29,000  Level Boston Center
10:22AM 42.6628 -76.3397 86° East 438 504 29,000  Level Boston Center
10:23AM 42.6725 -76.1794 85° East 432 497 29,000  Level Boston Center
10:24AM 42.6775 -76.0158 88° East 432 497 29,000 -60 Level Boston Center
10:25AM 42.6828 -75.8522 87° East 432 497 28,900 -720 Descending Boston Center
10:26AM 42.6917 -75.6861 86° East 432 497 27,600 -1,860 Descending Boston Center
10:27AM 42.6983 -75.5253 87° East 432 497 25,200 -2,400 Descending Boston Center
10:28AM 42.7044 -75.3731 87° East 420 483 22,900 -2,220 Descending Boston Center
10:29AM 42.7081 -75.2233 88° East 401 461 20,800 -2,100 Descending Boston Center
10:30AM 42.7136 -75.0767 87° East 395 455 18,700 -1,920 Descending Boston Center
10:31AM 42.7169 -74.9356 88° East 385 443 17,000 -2,040 Descending Boston Center
10:32AM 42.7222 -74.7831 87° East 368 423 14,700 -2,280 Descending Boston Center
10:32AM 42.7239 -74.7067 88° East 356 410 13,400 -1,920 Descending Boston Center
10:33AM 42.7247 -74.6644 88° East 363 418 12,800 -1,980 Descending Boston Center
10:33AM 42.7286 -74.5656 87° East 347 399 11,200 -1,740 Descending Boston Center
10:34AM 42.7294 -74.5206 89° East 351 404 11,100 -480 Descending Boston Center
10:34AM 42.7244 -74.4525 96° East 320 368 10,800 -540 Descending Boston Center
10:35AM 42.7228 -74.4183 94° East 323 372 10,600 -1,860 Descending Boston Center
10:35AM 42.7014 -74.3358 109° East 263 303 8,800 -2,340 Descending Boston Center
10:36AM 42.6956 -74.3103 107° East 283 326 8,300 -1,800 Descending Boston Center
10:36AM 42.6758 -74.2419 111° Southeast 268 308 7,000 -1,620 Descending Boston Center
10:37AM 42.6719 -74.2275 110° East 266 306 6,700 -1,860 Descending Boston Center
10:37AM 42.6478 -74.1619 117° Southeast 253 291 5,300 -1,920 Descending Boston Center
10:38AM 42.6358 -74.1361 122° Southeast 250 288 4,800 -1,200 Descending Boston Center
10:38AM 42.6072 -74.0903 130° Southeast 246 283 4,100 -840 Descending Boston Center
10:39AM 42.5931 -74.0589 122° Southeast 250 288 4,000 -120 Descending Boston Center
10:39AM 42.5772 -74.0050 112° Southeast 253 291 4,000  Level Boston Center
10:40AM 42.5733 -73.9739 100° East 245 282 4,000  Level Boston Center
10:40AM 42.5636 -73.9286 106° East 203 234 4,000 -420 Level Boston Center
10:41AM 42.5597 -73.9031 102° East 208 239 3,600 -1,020 Descending Boston Center
10:42AM 42.5544 -73.8353 96° East 181 208 2,700 -540 Descending Boston Center
10:42AM 42.5839 -73.8050 37° Northeast 177 204 2,700 -120 Level Boston Center
10:43AM 42.6278 -73.8003 North 173 199 2,500 -180 Descending Boston Center
10:44AM 42.6406 -73.7836 44° Northeast 160 184 2,500 -840 Level Boston Center
10:44AM 42.6714 -73.8039 334° Northwest 152 175 1,700 -1,080 Descending Boston Center
10:45AM 42.7089 -73.8075 356° North 140 161 900 -840 Descending Boston Center
10:48AM 42.7333 -73.8000 North  Level FlightAware Approximate
10:55AM 42.7491 -73.8020 North  Level Estimated
10:56AM 42.7491 -73.8020 North  Level Estimated